Time;durP1;ratioP1;P1;durP2;ratioP2;P2;SDS_P1;SDS_P2;PMS_P1;PMS_P2;Temp;Humidity;BMP_temperature;BMP_pressure;BME280_temperature;BME280_humidity;BME280_pressure;Samples;Min_cycle;Max_cycle;Signal;HPM_P1;HPM_P2
2021/11/03 00:00:47;;;;;;;3.60;3.40;;;;;;;2.92;100.00;96789.72;5050909;28;20233;-70
2021/11/03 00:03:16;;;;;;;3.60;3.10;;;;;;;2.81;100.00;96785.50;5051879;28;20915;-71
2021/11/03 00:05:46;;;;;;;3.30;3.10;;;;;;;2.84;100.00;96777.38;5023162;28;20529;-71
2021/11/03 00:08:16;;;;;;;3.70;3.50;;;;;;;2.83;100.00;96781.75;5053980;28;20218;-71
2021/11/03 00:10:47;;;;;;;2.97;2.77;;;;;;;2.64;100.00;96776.63;5038544;28;20297;-71
2021/11/03 00:13:19;;;;;;;3.57;3.37;;;;;;;2.58;100.00;96768.41;5053567;28;20261;-71
2021/11/03 00:15:47;;;;;;;3.57;3.27;;;;;;;2.59;100.00;96761.34;5049418;28;20411;-71
2021/11/03 00:18:15;;;;;;;3.47;3.27;;;;;;;2.49;100.00;96763.19;5051687;28;20357;-71
2021/11/03 00:20:44;;;;;;;2.93;2.73;;;;;;;2.44;100.00;96769.69;5025114;28;20198;-70
2021/11/03 00:23:13;;;;;;;3.20;2.90;;;;;;;2.34;100.00;96757.59;5053820;28;20550;-70
2021/11/03 00:25:45;;;;;;;2.97;2.77;;;;;;;2.24;100.00;96757.63;5039390;28;20221;-71
2021/11/03 00:28:15;;;;;;;3.23;3.03;;;;;;;2.27;100.00;96755.56;5053472;28;20209;-70
2021/11/03 00:30:44;;;;;;;2.83;2.73;;;;;;;2.33;100.00;96762.00;5048093;28;20251;-70
2021/11/03 00:33:13;;;;;;;4.63;3.40;;;;;;;2.22;100.00;96763.00;5049926;28;20729;-71
2021/11/03 00:35:41;;;;;;;2.90;2.70;;;;;;;2.12;100.00;96762.22;5015627;28;20422;-70
2021/11/03 00:38:09;;;;;;;3.03;2.93;;;;;;;2.10;100.00;96769.38;5053497;28;20203;-70
2021/11/03 00:40:37;;;;;;;3.07;2.90;;;;;;;2.03;100.00;96767.28;5039125;28;20225;-70
2021/11/03 00:43:07;;;;;;;2.63;2.43;;;;;;;1.98;100.00;96773.94;5053531;28;20552;-68
2021/11/03 00:45:37;;;;;;;4.23;2.73;;;;;;;1.98;100.00;96779.97;5049724;28;20218;-68
2021/11/03 00:48:05;;;;;;;2.53;2.43;;;;;;;1.99;100.00;96783.41;5053372;28;20287;-72
2021/11/03 00:50:34;;;;;;;2.93;2.83;;;;;;;2.01;100.00;96773.63;5016444;28;20233;-70
2021/11/03 00:53:02;;;;;;;3.57;3.27;;;;;;;1.99;100.00;96793.88;5051884;28;20613;-70
2021/11/03 00:55:30;;;;;;;3.60;3.10;;;;;;;1.92;100.00;96806.66;5039089;28;20472;-70
2021/11/03 00:57:58;;;;;;;3.83;3.63;;;;;;;1.90;100.00;96800.75;5049190;28;20203;-71
2021/11/03 01:00:26;;;;;;;4.43;3.63;;;;;;;1.95;100.00;96808.19;5049234;28;20199;-70
2021/11/03 01:02:56;;;;;;;3.50;3.17;;;;;;;1.92;100.00;96819.72;5049627;28;20433;-70
2021/11/03 01:05:26;;;;;;;3.97;3.67;;;;;;;1.95;100.00;96819.44;5020126;28;20536;-69
2021/11/03 01:07:54;;;;;;;4.50;4.10;;;;;;;1.89;100.00;96814.75;5050531;28;20398;-72
2021/11/03 01:10:24;;;;;;;3.60;3.40;;;;;;;1.87;100.00;96819.31;5042919;28;20290;-70
2021/11/03 01:12:53;;;;;;;3.77;3.30;;;;;;;1.88;100.00;96820.97;5050952;28;20444;-71
2021/11/03 01:15:24;;;;;;;3.77;3.47;;;;;;;1.86;100.00;96810.63;5050219;28;20214;-70
2021/11/03 01:17:54;;;;;;;3.50;3.20;;;;;;;1.92;100.00;96817.09;5048029;28;20225;-71
2021/11/03 01:20:24;;;;;;;3.43;3.23;;;;;;;1.96;100.00;96810.63;5040366;28;20295;-70
2021/11/03 01:22:53;;;;;;;3.20;3.00;;;;;;;1.98;100.00;96815.72;5038683;28;20749;-72
2021/11/03 01:25:22;;;;;;;4.10;3.80;;;;;;;1.96;100.00;96804.59;5051579;28;20310;-70
2021/11/03 01:27:50;;;;;;;3.60;3.40;;;;;;;1.89;100.00;96806.94;5043204;28;20428;-70
2021/11/03 01:30:20;;;;;;;3.77;3.50;;;;;;;1.90;100.00;96797.31;5050254;28;20228;-70
2021/11/03 01:32:49;;;;;;;3.77;3.50;;;;;;;1.83;100.00;96803.06;5048824;28;20435;-69
2021/11/03 01:35:17;;;;;;;3.57;3.33;;;;;;;1.88;100.00;96798.25;5050003;28;20733;-69
2021/11/03 01:37:47;;;;;;;3.90;3.60;;;;;;;1.80;100.00;96787.69;5016686;28;20218;-72
2021/11/03 01:40:18;;;;;;;3.67;3.47;;;;;;;1.77;100.00;96798.41;5016695;28;20675;-71
2021/11/03 01:42:46;;;;;;;3.87;3.63;;;;;;;1.80;100.00;96789.47;5027881;28;20987;-70
2021/11/03 01:45:17;;;;;;;3.20;3.00;;;;;;;1.75;100.00;96789.06;5056223;22;20424;-74
2021/11/03 01:47:49;;;;;;;3.70;3.50;;;;;;;1.68;100.00;96786.19;5017298;28;20847;-74
2021/11/03 01:50:26;;;;;;;3.57;3.33;;;;;;;1.67;100.00;96782.72;5050913;28;20694;-75
2021/11/03 01:52:59;;;;;;;3.80;3.60;;;;;;;1.71;100.00;96776.28;5049829;28;20304;-76
2021/11/03 01:55:27;;;;;;;3.70;3.50;;;;;;;1.71;100.00;96778.91;5012381;28;20715;-76
2021/11/03 01:58:00;;;;;;;4.30;3.87;;;;;;;1.69;100.00;96775.56;5028038;28;20226;-76
2021/11/03 02:00:30;;;;;;;3.60;3.40;;;;;;;1.76;100.00;96775.84;5032992;28;20219;-72
2021/11/03 02:03:03;;;;;;;3.87;3.57;;;;;;;1.75;100.00;96769.00;5009898;28;20242;-75
2021/11/03 02:05:31;;;;;;;3.27;3.07;;;;;;;1.67;100.00;96761.84;5017732;28;20227;-73
2021/11/03 02:08:02;;;;;;;5.13;4.40;;;;;;;1.67;100.00;96754.00;5036037;28;20237;-75
2021/11/03 02:10:31;;;;;;;5.27;3.93;;;;;;;1.66;100.00;96757.56;5004210;28;20212;-72
2021/11/03 02:12:59;;;;;;;4.20;3.90;;;;;;;1.68;100.00;96758.25;5032191;28;20290;-75
2021/11/03 02:15:28;;;;;;;4.47;4.07;;;;;;;1.65;100.00;96750.69;5030781;28;20418;-72
2021/11/03 02:17:57;;;;;;;4.07;3.80;;;;;;;1.64;100.00;96745.63;5022620;28;20691;-75
2021/11/03 02:20:26;;;;;;;4.13;3.83;;;;;;;1.72;100.00;96738.75;5021920;28;20616;-72
2021/11/03 02:23:09;;;;;;;4.10;3.80;;;;;;;1.75;100.00;96734.22;5034741;28;20310;-75
2021/11/03 02:25:43;;;;;;;4.80;4.40;;;;;;;1.68;100.00;96734.75;5040020;28;20411;-76
2021/11/03 02:28:12;;;;;;;4.47;4.07;;;;;;;1.65;100.00;96724.59;5003922;28;20208;-72
2021/11/03 02:30:40;;;;;;;4.43;4.03;;;;;;;1.61;100.00;96714.56;5035434;28;20386;-75
2021/11/03 02:33:19;;;;;;;4.37;4.07;;;;;;;1.54;100.00;96706.47;5042451;28;20215;-72
2021/11/03 02:35:54;;;;;;;3.93;3.67;;;;;;;1.47;100.00;96713.19;5025458;28;20285;-75
2021/11/03 02:38:29;;;;;;;4.93;4.53;;;;;;;1.46;100.00;96704.53;5035819;28;20203;-72
2021/11/03 02:41:03;;;;;;;5.43;4.60;;;;;;;1.51;100.00;96710.16;5044573;28;20213;-75
2021/11/03 02:43:37;;;;;;;4.73;4.37;;;;;;;1.44;100.00;96709.91;5002377;28;20681;-72
2021/11/03 02:46:05;;;;;;;5.33;4.93;;;;;;;1.39;100.00;96704.28;5039377;28;20710;-75
2021/11/03 02:48:35;;;;;;;5.13;4.73;;;;;;;1.47;100.00;96695.72;5035249;28;20412;-74
2021/11/03 02:51:10;;;;;;;5.47;4.97;;;;;;;1.56;100.00;96696.69;5028788;28;20238;-75
2021/11/03 02:53:41;;;;;;;5.30;4.80;;;;;;;1.59;100.00;96702.47;5036408;28;20301;-75
2021/11/03 02:56:12;;;;;;;5.20;4.70;;;;;;;1.58;100.00;96695.59;5030212;28;20695;-72
2021/11/03 02:58:40;;;;;;;5.93;5.43;;;;;;;1.65;100.00;96701.06;5018133;28;20314;-75
2021/11/03 03:01:11;;;;;;;6.70;6.20;;;;;;;1.73;100.00;96706.44;5036982;28;20360;-75
2021/11/03 03:03:44;;;;;;;7.70;6.80;;;;;;;1.78;100.00;96706.00;5039880;28;20226;-74
2021/11/03 03:06:16;;;;;;;6.83;6.17;;;;;;;1.79;100.00;96707.66;5022003;28;20571;-74
2021/11/03 03:08:44;;;;;;;7.87;7.07;;;;;;;1.81;100.00;96708.34;5035115;28;20648;-72
2021/11/03 03:11:14;;;;;;;9.73;8.83;;;;;;;1.88;100.00;96701.59;5038547;28;20785;-74
2021/11/03 03:13:42;;;;;;;8.37;7.57;;;;;;;2.02;100.00;96699.50;5009958;28;20219;-72
2021/11/03 03:16:11;;;;;;;8.57;7.77;;;;;;;2.09;100.00;96692.75;5033156;28;20238;-75
2021/11/03 03:18:39;;;;;;;8.83;7.50;;;;;;;2.04;100.00;96694.97;5047054;28;20210;-74
2021/11/03 03:21:07;;;;;;;8.83;7.93;;;;;;;1.96;100.00;96679.97;5024740;28;20208;-74
2021/11/03 03:23:40;;;;;;;10.20;8.97;;;;;;;2.10;100.00;96677.91;5035271;28;20297;-75
2021/11/03 03:26:11;;;;;;;12.23;10.93;;;;;;;2.10;100.00;96675.28;5038910;28;20714;-74
2021/11/03 03:28:41;;;;;;;13.10;11.30;;;;;;;2.20;100.00;96680.44;5002769;28;20235;-74
2021/11/03 03:31:11;;;;;;;12.87;11.37;;;;;;;2.21;100.00;96689.94;5034814;28;20202;-75
2021/11/03 03:33:42;;;;;;;13.23;10.77;;;;;;;2.24;100.00;96700.94;5045808;28;20702;-74
2021/11/03 03:36:10;;;;;;;13.77;11.47;;;;;;;2.26;100.00;96693.78;5007295;28;20234;-75
2021/11/03 03:38:39;;;;;;;13.33;11.97;;;;;;;2.29;100.00;96695.28;5032308;28;20672;-73
2021/11/03 03:41:07;;;;;;;11.73;10.47;;;;;;;2.29;100.00;96690.88;5038573;28;20207;-75
2021/11/03 03:43:36;;;;;;;12.90;11.57;;;;;;;2.26;100.00;96693.78;4996302;28;20223;-71
2021/11/03 03:46:06;;;;;;;13.80;10.97;;;;;;;2.39;100.00;96687.38;5038612;28;20253;-73
2021/11/03 03:48:35;;;;;;;12.60;11.13;;;;;;;2.41;100.00;96683.69;4979973;28;20348;-74
2021/11/03 03:51:04;;;;;;;13.57;11.87;;;;;;;2.42;100.00;96681.88;5036026;28;20210;-71
2021/11/03 03:53:33;;;;;;;13.23;11.83;;;;;;;2.43;100.00;96684.34;5028569;28;20238;-74
2021/11/03 03:56:11;;;;;;;14.47;11.77;;;;;;;2.35;100.00;96691.25;5029843;28;20930;-74
2021/11/03 03:58:40;;;;;;;12.20;10.93;;;;;;;2.40;100.00;96694.25;5023538;28;20215;-74
2021/11/03 04:01:09;;;;;;;12.37;11.20;;;;;;;2.43;100.00;96688.75;5030284;28;20221;-74
2021/11/03 04:03:39;;;;;;;12.00;10.80;;;;;;;2.44;100.00;96687.78;5008621;28;20227;-74
2021/11/03 04:06:07;;;;;;;11.57;10.40;;;;;;;2.48;100.00;96685.69;5036260;28;20223;-74
2021/11/03 04:08:35;;;;;;;13.77;12.33;;;;;;;2.56;100.00;96688.41;5034318;28;20203;-74
2021/11/03 04:11:04;;;;;;;13.17;11.80;;;;;;;2.45;100.00;96686.81;5032441;28;20294;-71
2021/11/03 04:13:32;;;;;;;14.70;12.93;;;;;;;2.54;100.00;96679.88;5025331;28;20261;-73
2021/11/03 04:16:00;;;;;;;13.47;11.40;;;;;;;2.50;100.00;96684.59;5035170;28;20233;-71
2021/11/03 04:18:30;;;;;;;12.67;11.37;;;;;;;2.43;100.00;96678.28;5015173;28;20215;-75
2021/11/03 04:20:58;;;;;;;13.33;11.37;;;;;;;2.57;100.00;96684.81;5040940;28;20211;-71
2021/11/03 04:23:26;;;;;;;13.43;11.90;;;;;;;2.45;100.00;96671.94;5041446;28;20208;-74
2021/11/03 04:25:55;;;;;;;13.63;12.23;;;;;;;2.43;100.00;96666.03;5038173;28;20231;-71
2021/11/03 04:28:24;;;;;;;14.20;12.17;;;;;;;2.56;100.00;96678.78;5025349;28;20208;-75
2021/11/03 04:30:52;;;;;;;14.40;11.67;;;;;;;2.50;100.00;96675.91;5038922;28;20543;-72
2021/11/03 04:33:20;;;;;;;13.40;12.10;;;;;;;2.45;100.00;96671.13;5007523;28;20416;-75
2021/11/03 04:35:50;;;;;;;13.97;12.37;;;;;;;2.58;100.00;96681.25;5040898;28;20810;-73
2021/11/03 04:38:18;;;;;;;13.40;12.00;;;;;;;2.62;100.00;96681.78;5023609;28;20208;-74
2021/11/03 04:40:47;;;;;;;12.97;11.63;;;;;;;2.65;100.00;96678.88;5038712;28;20302;-73
2021/11/03 04:43:15;;;;;;;12.87;11.60;;;;;;;2.66;100.00;96677.91;5017438;28;20504;-74
2021/11/03 04:45:43;;;;;;;13.27;11.17;;;;;;;2.58;100.00;96665.53;5029470;28;20247;-75
2021/11/03 04:48:11;;;;;;;13.17;11.83;;;;;;;2.67;100.00;96674.31;5001406;28;20219;-74
2021/11/03 04:50:39;;;;;;;12.53;10.87;;;;;;;2.63;100.00;96671.16;5029201;28;20218;-75
2021/11/03 04:53:09;;;;;;;13.83;11.23;;;;;;;2.64;100.00;96678.03;5039398;28;20515;-75
2021/11/03 04:55:37;;;;;;;12.33;11.13;;;;;;;2.59;100.00;96675.03;5042618;28;20239;-73
2021/11/03 04:58:05;;;;;;;14.03;12.63;;;;;;;2.56;100.00;96672.72;5030971;28;21385;-74
2021/11/03 05:00:36;;;;;;;13.10;11.80;;;;;;;2.64;100.00;96661.53;5025611;28;20687;-74
2021/11/03 05:03:05;;;;;;;12.90;11.20;;;;;;;2.66;100.00;96663.03;4999668;28;21463;-73
2021/11/03 05:05:35;;;;;;;13.23;11.90;;;;;;;2.71;100.00;96662.59;5043253;28;20234;-76
2021/11/03 05:08:04;;;;;;;13.53;11.97;;;;;;;2.66;100.00;96676.13;5047605;28;20202;-74
2021/11/03 05:10:34;;;;;;;14.63;12.90;;;;;;;2.63;100.00;96671.16;5039911;28;20310;-76
2021/11/03 05:13:02;;;;;;;12.13;10.93;;;;;;;2.60;100.00;96672.28;5025008;28;20215;-74
2021/11/03 05:15:30;;;;;;;12.93;11.37;;;;;;;2.63;100.00;96676.38;5026387;28;20711;-77
2021/11/03 05:17:59;;;;;;;13.23;11.83;;;;;;;2.78;100.00;96666.25;5009209;28;20812;-74
2021/11/03 05:20:28;;;;;;;15.17;11.93;;;;;;;2.72;100.00;96666.84;5021101;28;20244;-77
2021/11/03 05:22:56;;;;;;;12.63;11.33;;;;;;;2.70;100.00;96669.63;5046804;28;20248;-75
2021/11/03 05:25:27;;;;;;;11.33;10.20;;;;;;;2.65;100.00;96666.63;5027197;28;20228;-77
2021/11/03 05:27:58;;;;;;;13.77;11.70;;;;;;;2.85;100.00;96666.50;5040425;28;20386;-75
2021/11/03 05:30:28;;;;;;;12.13;10.87;;;;;;;2.83;100.00;96664.00;5034043;28;20564;-79
2021/11/03 05:32:57;;;;;;;12.07;10.87;;;;;;;2.79;100.00;96662.66;5035669;28;20203;-75
2021/11/03 05:35:26;;;;;;;13.70;12.30;;;;;;;2.81;100.00;96665.97;5012232;28;20868;-77
2021/11/03 05:37:54;;;;;;;12.57;11.37;;;;;;;2.75;100.00;96661.31;5023323;28;20651;-75
2021/11/03 05:40:25;;;;;;;12.57;11.27;;;;;;;2.85;100.00;96653.41;5039589;28;20199;-72
2021/11/03 05:42:53;;;;;;;14.20;12.60;;;;;;;2.65;100.00;96661.41;5020824;28;20211;-73
2021/11/03 05:45:25;;;;;;;14.17;11.50;;;;;;;2.85;100.00;96659.47;5020594;28;20659;-73
2021/11/03 05:47:53;;;;;;;13.30;11.87;;;;;;;2.79;100.00;96662.66;5026663;28;20247;-75
2021/11/03 05:50:24;;;;;;;14.27;12.30;;;;;;;2.84;100.00;96646.53;5005631;28;20207;-74
2021/11/03 05:52:52;;;;;;;13.90;11.90;;;;;;;2.79;100.00;96649.59;5042671;28;20731;-76
2021/11/03 05:55:21;;;;;;;14.80;12.23;;;;;;;2.79;100.00;96657.44;5004981;28;20611;-76
2021/11/03 05:57:55;;;;;;;15.07;11.73;;;;;;;2.67;100.00;96641.16;5027726;28;20216;-77
2021/11/03 06:00:29;;;;;;;13.07;11.70;;;;;;;2.67;100.00;96638.53;5035249;28;20315;-74
2021/11/03 06:02:57;;;;;;;15.27;11.20;;;;;;;2.67;100.00;96642.94;5027750;28;20218;-74
2021/11/03 06:05:26;;;;;;;12.00;10.73;;;;;;;2.67;100.00;96640.31;5045060;28;20623;-76
2021/11/03 06:07:55;;;;;;;12.23;10.83;;;;;;;2.69;100.00;96641.81;5041480;28;20202;-74
2021/11/03 06:10:31;;;;;;;13.17;11.47;;;;;;;2.70;100.00;96648.69;5014713;28;20773;-74
2021/11/03 06:13:00;;;;;;;12.07;9.87;;;;;;;2.68;100.00;96640.19;5035820;28;20708;-76
2021/11/03 06:15:31;;;;;;;14.13;11.50;;;;;;;2.70;100.00;96635.63;5046733;28;20227;-74
2021/11/03 06:17:59;;;;;;;13.87;12.07;;;;;;;2.70;100.00;96627.78;5028721;28;20214;-75
2021/11/03 06:20:27;;;;;;;13.53;12.20;;;;;;;2.79;100.00;96633.88;5045242;28;20211;-75
2021/11/03 06:22:55;;;;;;;13.17;11.20;;;;;;;2.86;100.00;96634.13;5037207;28;20579;-77
2021/11/03 06:25:25;;;;;;;12.27;10.73;;;;;;;2.83;100.00;96632.63;5038879;28;20309;-77
2021/11/03 06:27:54;;;;;;;16.30;12.93;;;;;;;2.86;100.00;96634.13;5011217;28;20453;-76
2021/11/03 06:30:26;;;;;;;16.97;14.10;;;;;;;2.96;100.00;96632.25;5046628;28;20211;-75
2021/11/03 06:32:56;;;;;;;17.83;13.03;;;;;;;2.92;100.00;96640.56;5026136;28;20409;-75
2021/11/03 06:35:25;;;;;;;16.97;14.37;;;;;;;3.01;100.00;96642.28;5028529;28;20222;-75
2021/11/03 06:37:53;;;;;;;14.73;12.27;;;;;;;3.06;100.00;96637.41;5038869;28;20227;-78
2021/11/03 06:40:24;;;;;;;12.63;11.23;;;;;;;3.12;100.00;96626.34;5021843;28;20214;-75
2021/11/03 06:42:52;;;;;;;14.60;12.90;;;;;;;3.04;100.00;96628.88;5009184;28;20211;-77
2021/11/03 06:45:22;;;;;;;15.23;13.57;;;;;;;3.04;100.00;96626.28;5036020;28;20263;-74
2021/11/03 06:47:51;;;;;;;17.40;15.70;;;;;;;2.99;100.00;96626.72;5037396;28;20209;-76
2021/11/03 06:50:23;;;;;;;18.47;12.53;;;;;;;3.21;100.00;96623.78;5046704;28;20218;-75
2021/11/03 06:52:53;;;;;;;17.20;12.10;;;;;;;3.21;100.00;96621.16;5048975;28;20203;-75
2021/11/03 06:55:22;;;;;;;13.60;10.87;;;;;;;3.23;100.00;96614.00;5027890;28;20293;-74
2021/11/03 06:57:50;;;;;;;12.33;10.70;;;;;;;3.15;100.00;96612.94;5017325;28;20220;-77
2021/11/03 07:00:23;;;;;;;11.57;10.40;;;;;;;3.10;100.00;96611.78;5047767;28;20660;-75
2021/11/03 07:02:52;;;;;;;11.73;10.53;;;;;;;3.14;100.00;96606.06;5047532;28;20203;-78
2021/11/03 07:05:21;;;;;;;11.57;10.47;;;;;;;3.11;100.00;96597.72;5035499;28;20233;-75
2021/11/03 07:07:52;;;;;;;12.40;10.67;;;;;;;3.09;100.00;96602.28;5044986;28;20229;-78
2021/11/03 07:10:27;;;;;;;12.70;11.17;;;;;;;3.13;100.00;96604.41;5030846;28;20382;-74
2021/11/03 07:12:56;;;;;;;13.83;10.40;;;;;;;3.31;100.00;96604.41;5015139;28;20244;-79
2021/11/03 07:15:25;;;;;;;12.40;10.37;;;;;;;3.26;100.00;96596.19;5040589;28;20223;-75
2021/11/03 07:17:53;;;;;;;13.40;11.07;;;;;;;3.27;100.00;96591.78;5046430;28;20228;-78
2021/11/03 07:20:23;;;;;;;11.73;10.50;;;;;;;3.29;100.00;96593.25;5038314;28;20214;-75
2021/11/03 07:22:51;;;;;;;12.03;9.73;;;;;;;3.45;100.00;96600.41;5052186;28;20241;-77
2021/11/03 07:25:22;;;;;;;12.67;10.40;;;;;;;3.42;100.00;96600.72;5044752;28;20211;-75
2021/11/03 07:27:51;;;;;;;11.00;9.80;;;;;;;3.51;100.00;96596.38;5048364;28;20279;-77
2021/11/03 07:30:21;;;;;;;10.50;8.77;;;;;;;3.55;100.00;96594.25;5015689;28;20212;-74
2021/11/03 07:32:49;;;;;;;14.23;10.27;;;;;;;3.54;100.00;96590.81;5049659;28;20429;-79
2021/11/03 07:35:18;;;;;;;16.40;10.17;;;;;;;3.55;100.00;96586.38;5035814;28;20314;-75
2021/11/03 07:37:53;;;;;;;13.00;10.40;;;;;;;3.66;100.00;96595.78;5052663;28;20334;-78
2021/11/03 07:40:23;;;;;;;13.13;9.67;;;;;;;3.62;100.00;96598.72;5036474;28;20750;-76
2021/11/03 07:42:57;;;;;;;11.23;9.17;;;;;;;3.64;100.00;96598.56;5052080;28;20206;-79
2021/11/03 07:45:30;;;;;;;12.40;9.67;;;;;;;3.65;100.00;96592.34;5019178;28;20230;-79
2021/11/03 07:47:59;;;;;;;12.43;9.77;;;;;;;3.65;100.00;96592.34;5050650;28;20203;-79
2021/11/03 07:50:29;;;;;;;10.90;9.40;;;;;;;3.73;100.00;96581.91;5035087;28;20218;-79
2021/11/03 07:53:00;;;;;;;10.03;8.73;;;;;;;3.76;100.00;96576.38;5049903;28;20565;-77
2021/11/03 07:55:28;;;;;;;8.80;7.90;;;;;;;3.79;100.00;96583.09;5042716;28;20873;-77
2021/11/03 07:57:56;;;;;;;10.63;8.53;;;;;;;3.96;100.00;96581.34;5040163;28;20773;-80
2021/11/03 08:00:28;;;;;;;9.47;8.53;;;;;;;3.86;100.00;96578.88;5014018;28;20210;-76
2021/11/03 08:02:56;;;;;;;12.10;9.03;;;;;;;4.01;100.00;96575.66;5014082;28;20222;-76
2021/11/03 08:05:27;;;;;;;9.90;8.77;;;;;;;3.95;100.00;96568.44;5049127;28;20261;-78
2021/11/03 08:07:56;;;;;;;9.10;8.10;;;;;;;3.90;100.00;96566.25;5045456;28;20381;-76
2021/11/03 08:10:27;;;;;;;9.20;8.30;;;;;;;3.95;100.00;96566.59;5042646;28;20218;-78
2021/11/03 08:12:56;;;;;;;10.17;8.23;;;;;;;4.02;100.00;96567.66;5040470;28;20207;-75
2021/11/03 08:15:25;;;;;;;10.03;8.03;;;;;;;4.12;100.00;96561.44;5047606;28;20477;-78
2021/11/03 08:17:57;;;;;;;11.13;9.57;;;;;;;4.27;100.00;96559.84;5034101;28;20229;-75
2021/11/03 08:20:27;;;;;;;10.40;8.97;;;;;;;4.49;100.00;96565.50;5037053;28;20848;-79
2021/11/03 08:22:58;;;;;;;9.77;8.77;;;;;;;4.60;100.00;96562.56;5040645;28;20634;-75
2021/11/03 08:25:28;;;;;;;9.83;8.33;;;;;;;4.64;100.00;96553.38;5046505;28;20711;-77
2021/11/03 08:27:56;;;;;;;9.47;8.57;;;;;;;4.74;100.00;96540.09;5040942;28;20207;-75
2021/11/03 08:30:25;;;;;;;8.77;7.87;;;;;;;4.78;100.00;96548.47;5043019;28;20549;-76
2021/11/03 08:32:56;;;;;;;10.77;7.70;;;;;;;4.71;100.00;96544.84;5042556;28;20214;-75
2021/11/03 08:35:26;;;;;;;10.20;9.20;;;;;;;4.62;100.00;96542.22;5014011;28;20617;-76
2021/11/03 08:37:56;;;;;;;9.20;8.30;;;;;;;4.54;100.00;96538.75;5029785;28;20322;-74
2021/11/03 08:40:24;;;;;;;10.00;8.43;;;;;;;4.61;100.00;96535.31;5040112;28;20408;-78
2021/11/03 08:43:13;;;;;;;9.47;8.57;;;;;;;4.64;100.00;96532.38;5042583;28;20199;-76
2021/11/03 08:45:44;;;;;;;9.03;7.53;;;;;;;4.67;100.00;96530.41;5041171;28;20282;-79
2021/11/03 08:48:13;;;;;;;9.73;8.70;;;;;;;4.66;100.00;96516.47;5043647;28;20592;-80
2021/11/03 08:50:43;;;;;;;8.13;7.33;;;;;;;4.72;100.00;96522.88;5015794;28;20215;-79
2021/11/03 08:53:12;;;;;;;14.23;9.13;;;;;;;4.84;100.00;96521.56;5046431;28;20203;-81
2021/11/03 08:55:40;;;;;;;9.53;8.50;;;;;;;4.97;100.00;96518.47;5049137;28;20235;-80
2021/11/03 08:58:12;;;;;;;9.07;8.13;;;;;;;5.09;100.00;96523.38;5044021;28;20223;-78
2021/11/03 09:00:43;;;;;;;10.37;9.40;;;;;;;5.28;100.00;96532.69;5050663;28;20212;-78
2021/11/03 09:03:12;;;;;;;9.00;8.07;;;;;;;5.43;100.00;96536.28;5035833;28;20519;-78
2021/11/03 09:05:40;;;;;;;9.83;8.93;;;;;;;5.49;100.00;96542.69;5006258;28;20235;-76
2021/11/03 09:08:11;;;;;;;9.40;8.53;;;;;;;5.64;100.00;96546.25;5037004;28;20672;-74
2021/11/03 09:10:45;;;;;;;9.90;8.90;;;;;;;5.79;100.00;96538.47;5038873;28;20204;-75
2021/11/03 09:13:17;;;;;;;9.47;8.50;;;;;;;5.86;100.00;96543.06;5028179;28;20539;-77
2021/11/03 09:15:45;;;;;;;9.00;8.10;;;;;;;6.10;100.00;96526.41;5039413;28;20226;-77
2021/11/03 09:18:14;;;;;;;8.10;7.33;;;;;;;6.14;100.00;96517.19;5045023;28;20226;-75
2021/11/03 09:20:44;;;;;;;8.73;7.93;;;;;;;6.31;100.00;96512.66;5014420;28;20322;-77
2021/11/03 09:23:13;;;;;;;8.93;8.03;;;;;;;6.51;100.00;96515.66;5045267;28;20398;-77
2021/11/03 09:25:41;;;;;;;36.43;21.33;;;;;;;6.81;100.00;96509.69;5042950;28;20242;-77
2021/11/03 09:28:09;;;;;;;17.87;14.00;;;;;;;6.74;100.00;96522.72;5048555;28;20956;-77
2021/11/03 09:30:39;;;;;;;10.57;9.23;;;;;;;6.89;100.00;96520.16;5044107;28;20394;-76
2021/11/03 09:33:09;;;;;;;8.30;7.53;;;;;;;6.83;100.00;96510.31;5046301;28;20213;-74
2021/11/03 09:35:39;;;;;;;10.13;7.93;;;;;;;6.87;100.00;96516.88;5047180;28;20235;-78
2021/11/03 09:38:10;;;;;;;9.70;8.23;;;;;;;6.91;100.00;96515.53;5016276;28;20247;-75
2021/11/03 09:40:47;;;;;;;8.13;7.43;;;;;;;7.04;100.00;96506.22;5044354;28;20204;-77
2021/11/03 09:43:25;;;;;;;10.00;7.53;;;;;;;6.99;100.00;96498.00;5039349;28;20210;-77
2021/11/03 09:45:55;;;;;;;8.50;7.80;;;;;;;7.18;100.00;96494.88;5046203;28;20230;-74
2021/11/03 09:48:26;;;;;;;8.83;8.03;;;;;;;7.45;100.00;96505.00;5050007;28;20904;-77
2021/11/03 09:50:57;;;;;;;7.50;6.77;;;;;;;7.16;100.00;96501.31;5033412;28;20206;-73
2021/11/03 09:53:31;;;;;;;6.60;6.10;;;;;;;7.03;100.00;96497.47;5031962;28;20308;-77
2021/11/03 09:56:00;;;;;;;8.20;7.47;;;;;;;7.07;100.00;96501.41;5039400;28;20243;-75
2021/11/03 09:58:41;;;;;;;8.20;7.07;;;;;;;7.04;100.00;96498.31;5038689;28;20228;-76
2021/11/03 10:01:20;;;;;;;8.00;7.20;;;;;;;7.05;100.00;96495.50;5032061;28;20789;-78
2021/11/03 10:04:00;;;;;;;7.13;6.50;;;;;;;7.14;100.00;96495.41;5036950;28;20203;-78
2021/11/03 10:06:35;;;;;;;6.60;6.07;;;;;;;7.16;100.00;96498.69;5010373;28;20223;-78
2021/11/03 10:09:07;;;;;;;6.70;6.20;;;;;;;7.21;100.00;96491.09;5038345;28;20253;-77
2021/11/03 10:11:37;;;;;;;7.37;6.53;;;;;;;7.31;100.00;96480.25;5010300;28;20643;-75
2021/11/03 10:14:06;;;;;;;6.93;6.10;;;;;;;7.46;100.00;96486.38;5038286;28;20574;-77
2021/11/03 10:16:38;;;;;;;6.10;5.60;;;;;;;7.67;100.00;96474.25;5033771;28;20768;-76
2021/11/03 10:19:22;;;;;;;6.77;6.13;;;;;;;7.94;100.00;96464.06;5034079;28;20222;-77
2021/11/03 10:21:54;;;;;;;6.63;6.03;;;;;;;8.03;100.00;96454.22;5039825;28;20629;-77
2021/11/03 10:24:39;;;;;;;7.57;6.87;;;;;;;8.25;100.00;96444.50;4998504;28;20242;-75
2021/11/03 10:27:20;;;;;;;6.27;5.43;;;;;;;8.63;100.00;96431.09;5038256;28;20205;-74
2021/11/03 10:29:50;;;;;;;6.17;5.63;;;;;;;8.91;100.00;96442.69;5043587;28;20220;-76
2021/11/03 10:32:38;;;;;;;5.30;4.90;;;;;;;8.89;100.00;96445.50;5048284;28;20203;-76
2021/11/03 10:35:20;;;;;;;5.17;4.87;;;;;;;9.16;100.00;96452.84;5042789;28;20215;-77
2021/11/03 10:38:00;;;;;;;5.47;4.97;;;;;;;9.09;100.00;96442.19;5049717;28;20302;-78
2021/11/03 10:40:30;;;;;;;5.00;4.60;;;;;;;9.22;100.00;96442.28;5011141;28;20214;-76
2021/11/03 10:43:03;;;;;;;5.53;5.00;;;;;;;9.23;100.00;96453.69;5044137;28;20648;-77
2021/11/03 10:45:33;;;;;;;5.37;4.87;;;;;;;9.36;100.00;96452.97;5041121;28;20238;-74
2021/11/03 10:48:20;;;;;;;4.03;3.73;;;;;;;9.62;100.00;96451.44;5047653;28;20200;-76
2021/11/03 10:51:02;;;;;;;4.10;3.40;;;;;;;9.46;100.00;96445.50;5045475;28;20605;-77
2021/11/03 10:53:32;;;;;;;4.13;3.73;;;;;;;9.43;100.00;96448.53;5045054;28;20294;-76
2021/11/03 10:56:03;;;;;;;3.43;3.23;;;;;;;9.65;100.00;96443.94;5015526;28;20235;-77
2021/11/03 10:58:34;;;;;;;3.23;2.93;;;;;;;9.53;100.00;96435.75;5048253;28;20223;-77
2021/11/03 11:01:06;;;;;;;6.67;3.00;;;;;;;9.75;100.00;96417.16;5052562;28;20288;-77
2021/11/03 11:03:40;;;;;;;3.23;3.03;;;;;;;9.89;100.00;96401.31;5045728;28;20397;-77
2021/11/03 11:06:13;;;;;;;4.00;3.07;;;;;;;9.85;100.00;96392.97;5045567;28;20634;-75
2021/11/03 11:08:50;;;;;;;2.53;2.40;;;;;;;9.80;100.00;96390.91;5037548;28;20688;-77
2021/11/03 11:11:23;;;;;;;2.83;2.63;;;;;;;9.77;100.00;96383.38;5027989;28;20207;-74
2021/11/03 11:13:59;;;;;;;2.47;2.33;;;;;;;9.66;100.00;96384.75;5048365;28;20194;-75
2021/11/03 11:16:42;;;;;;;2.43;2.30;;;;;;;9.69;100.00;96380.91;5044219;28;20415;-76
2021/11/03 11:19:20;;;;;;;3.07;2.87;;;;;;;9.57;100.00;96378.00;5048142;28;20235;-75
2021/11/03 11:21:52;;;;;;;2.80;2.60;;;;;;;9.55;100.00;96386.13;5045633;28;20285;-76
2021/11/03 11:24:26;;;;;;;6.33;5.10;;;;;;;9.71;100.00;96389.47;5040478;28;20313;-74
2021/11/03 11:27:06;;;;;;;8.70;5.40;;;;;;;9.53;100.00;96390.00;5017804;28;20219;-77
2021/11/03 11:29:41;;;;;;;4.17;3.20;;;;;;;9.62;100.00;96378.22;5043210;28;20303;-76
2021/11/03 11:32:28;;;;;;;2.53;2.43;;;;;;;9.54;100.00;96376.56;5043096;28;20207;-75
2021/11/03 11:35:09;;;;;;;2.97;2.70;;;;;;;9.55;100.00;96380.03;5043569;28;20233;-77
2021/11/03 11:37:42;;;;;;;3.13;2.93;;;;;;;9.53;100.00;96377.56;5046124;28;20226;-77
2021/11/03 11:40:23;;;;;;;2.83;2.63;;;;;;;9.50;100.00;96371.88;5060115;28;20223;-75
2021/11/03 11:42:55;;;;;;;2.50;2.40;;;;;;;9.51;100.00;96374.31;5025490;28;20222;-77